sensor_id;sensor_type;location;lat;lon;timestamp;temperature;humidity
11934;DHT22;6026;48.784;9.198;2022-08-25T00:01:56;21.80;99.90
11934;DHT22;6026;48.784;9.198;2022-08-25T00:04:23;21.80;99.90
11934;DHT22;6026;48.784;9.198;2022-08-25T00:06:49;21.70;99.90
11934;DHT22;6026;48.784;9.198;2022-08-25T00:09:17;21.70;99.90
11934;DHT22;6026;48.784;9.198;2022-08-25T00:11:44;21.70;99.90
11934;DHT22;6026;48.784;9.198;2022-08-25T00:14:13;21.70;99.90
11934;DHT22;6026;48.784;9.198;2022-08-25T00:16:39;21.60;99.90
11934;DHT22;6026;48.784;9.198;2022-08-25T00:19:10;21.60;99.90
11934;DHT22;6026;48.784;9.198;2022-08-25T00:21:37;21.50;99.90
11934;DHT22;6026;48.784;9.198;2022-08-25T00:24:05;21.50;99.90
11934;DHT22;6026;48.784;9.198;2022-08-25T00:26:33;21.50;99.90
11934;DHT22;6026;48.784;9.198;2022-08-25T00:28:59;21.40;99.90
11934;DHT22;6026;48.784;9.198;2022-08-25T00:31:24;21.50;99.90
11934;DHT22;6026;48.784;9.198;2022-08-25T00:33:51;21.40;99.90
11934;DHT22;6026;48.784;9.198;2022-08-25T00:36:18;21.40;99.90
11934;DHT22;6026;48.784;9.198;2022-08-25T00:38:45;21.30;99.90
11934;DHT22;6026;48.784;9.198;2022-08-25T00:41:15;21.30;99.90
11934;DHT22;6026;48.784;9.198;2022-08-25T00:43:46;21.20;99.90
11934;DHT22;6026;48.784;9.198;2022-08-25T00:46:15;21.20;99.90
11934;DHT22;6026;48.784;9.198;2022-08-25T00:48:44;21.10;99.90
11934;DHT22;6026;48.784;9.198;2022-08-25T00:51:17;21.10;99.90
11934;DHT22;6026;48.784;9.198;2022-08-25T00:53:43;21.00;99.90
11934;DHT22;6026;48.784;9.198;2022-08-25T00:56:10;21.00;99.90
11934;DHT22;6026;48.784;9.198;2022-08-25T00:58:37;21.00;99.90
11934;DHT22;6026;48.784;9.198;2022-08-25T01:01:04;20.90;99.90
11934;DHT22;6026;48.784;9.198;2022-08-25T01:03:30;20.90;99.90
11934;DHT22;6026;48.784;9.198;2022-08-25T01:05:59;20.80;99.90
11934;DHT22;6026;48.784;9.198;2022-08-25T01:08:27;20.80;99.90
11934;DHT22;6026;48.784;9.198;2022-08-25T01:10:55;20.80;99.90
11934;DHT22;6026;48.784;9.198;2022-08-25T01:13:39;20.80;99.90
11934;DHT22;6026;48.784;9.198;2022-08-25T01:16:05;20.70;99.90
11934;DHT22;6026;48.784;9.198;2022-08-25T01:18:42;20.70;99.90
11934;DHT22;6026;48.784;9.198;2022-08-25T01:21:08;20.60;99.90
11934;DHT22;6026;48.784;9.198;2022-08-25T01:23:34;20.60;99.90
11934;DHT22;6026;48.784;9.198;2022-08-25T01:28:32;20.50;99.90
11934;DHT22;6026;48.784;9.198;2022-08-25T01:30:58;20.50;99.90
11934;DHT22;6026;48.784;9.198;2022-08-25T01:33:24;20.50;99.90
11934;DHT22;6026;48.784;9.198;2022-08-25T01:35:50;20.50;99.90
11934;DHT22;6026;48.784;9.198;2022-08-25T01:38:16;20.40;99.90
11934;DHT22;6026;48.784;9.198;2022-08-25T01:40:42;20.40;99.90
11934;DHT22;6026;48.784;9.198;2022-08-25T01:45:38;20.40;99.90
11934;DHT22;6026;48.784;9.198;2022-08-25T01:48:06;20.30;99.90
11934;DHT22;6026;48.784;9.198;2022-08-25T01:50:33;20.30;99.90
11934;DHT22;6026;48.784;9.198;2022-08-25T01:53:02;20.20;99.90
11934;DHT22;6026;48.784;9.198;2022-08-25T01:55:29;20.20;99.90
11934;DHT22;6026;48.784;9.198;2022-08-25T01:57:56;20.20;99.90
11934;DHT22;6026;48.784;9.198;2022-08-25T02:00:22;20.20;99.90
11934;DHT22;6026;48.784;9.198;2022-08-25T02:02:48;20.10;99.90
11934;DHT22;6026;48.784;9.198;2022-08-25T02:05:14;20.20;99.90
11934;DHT22;6026;48.784;9.198;2022-08-25T02:07:44;20.10;99.90
11934;DHT22;6026;48.784;9.198;2022-08-25T02:10:11;20.10;99.90
11934;DHT22;6026;48.784;9.198;2022-08-25T02:12:38;20.10;99.90
11934;DHT22;6026;48.784;9.198;2022-08-25T02:15:07;20.10;99.90
11934;DHT22;6026;48.784;9.198;2022-08-25T02:17:34;20.00;99.90
11934;DHT22;6026;48.784;9.198;2022-08-25T02:20:02;20.00;99.90
11934;DHT22;6026;48.784;9.198;2022-08-25T02:22:28;19.90;99.90
11934;DHT22;6026;48.784;9.198;2022-08-25T02:24:53;19.90;99.90
11934;DHT22;6026;48.784;9.198;2022-08-25T02:27:19;19.90;99.90
11934;DHT22;6026;48.784;9.198;2022-08-25T02:29:45;19.90;99.90
11934;DHT22;6026;48.784;9.198;2022-08-25T02:32:11;19.90;99.90
11934;DHT22;6026;48.784;9.198;2022-08-25T02:34:36;19.80;99.90
11934;DHT22;6026;48.784;9.198;2022-08-25T02:37:02;19.80;99.90
11934;DHT22;6026;48.784;9.198;2022-08-25T02:39:27;19.80;99.90
11934;DHT22;6026;48.784;9.198;2022-08-25T02:41:53;19.80;99.90
11934;DHT22;6026;48.784;9.198;2022-08-25T02:44:19;19.80;99.90
11934;DHT22;6026;48.784;9.198;2022-08-25T02:46:44;19.80;99.90
11934;DHT22;6026;48.784;9.198;2022-08-25T02:49:10;19.80;99.90
11934;DHT22;6026;48.784;9.198;2022-08-25T02:51:35;19.70;99.90
11934;DHT22;6026;48.784;9.198;2022-08-25T02:54:03;19.70;99.90
11934;DHT22;6026;48.784;9.198;2022-08-25T02:56:30;19.70;99.90
11934;DHT22;6026;48.784;9.198;2022-08-25T02:58:56;19.70;99.90
11934;DHT22;6026;48.784;9.198;2022-08-25T03:01:22;19.60;99.90
11934;DHT22;6026;48.784;9.198;2022-08-25T03:03:50;19.70;99.90
11934;DHT22;6026;48.784;9.198;2022-08-25T03:06:19;19.60;99.90
11934;DHT22;6026;48.784;9.198;2022-08-25T03:08:47;19.60;99.90
11934;DHT22;6026;48.784;9.198;2022-08-25T03:11:13;19.60;99.90
11934;DHT22;6026;48.784;9.198;2022-08-25T03:13:39;19.50;99.90
11934;DHT22;6026;48.784;9.198;2022-08-25T03:16:06;19.60;99.90
11934;DHT22;6026;48.784;9.198;2022-08-25T03:18:32;19.50;99.90
11934;DHT22;6026;48.784;9.198;2022-08-25T03:20:58;19.50;99.90
11934;DHT22;6026;48.784;9.198;2022-08-25T03:23:24;19.50;99.90
11934;DHT22;6026;48.784;9.198;2022-08-25T03:25:50;19.40;99.90
11934;DHT22;6026;48.784;9.198;2022-08-25T03:28:36;19.40;99.90
11934;DHT22;6026;48.784;9.198;2022-08-25T03:31:02;19.40;99.90
11934;DHT22;6026;48.784;9.198;2022-08-25T03:33:28;19.40;99.90
11934;DHT22;6026;48.784;9.198;2022-08-25T03:35:54;19.30;99.90
11934;DHT22;6026;48.784;9.198;2022-08-25T03:38:22;19.30;99.90
11934;DHT22;6026;48.784;9.198;2022-08-25T03:40:48;19.30;99.90
11934;DHT22;6026;48.784;9.198;2022-08-25T03:43:14;19.30;99.90
11934;DHT22;6026;48.784;9.198;2022-08-25T03:45:41;19.30;99.90
11934;DHT22;6026;48.784;9.198;2022-08-25T03:48:07;19.30;99.90
11934;DHT22;6026;48.784;9.198;2022-08-25T03:50:32;19.30;99.90
11934;DHT22;6026;48.784;9.198;2022-08-25T03:52:58;19.30;99.90
11934;DHT22;6026;48.784;9.198;2022-08-25T03:55:24;19.30;99.90
11934;DHT22;6026;48.784;9.198;2022-08-25T03:57:51;19.20;99.90
11934;DHT22;6026;48.784;9.198;2022-08-25T04:00:19;19.20;99.90
11934;DHT22;6026;48.784;9.198;2022-08-25T04:02:45;19.20;99.90
11934;DHT22;6026;48.784;9.198;2022-08-25T04:05:11;19.20;99.90
11934;DHT22;6026;48.784;9.198;2022-08-25T04:07:38;19.20;99.90
11934;DHT22;6026;48.784;9.198;2022-08-25T04:10:08;19.20;99.90
11934;DHT22;6026;48.784;9.198;2022-08-25T04:12:35;19.10;99.90
11934;DHT22;6026;48.784;9.198;2022-08-25T04:15:01;19.10;99.90
11934;DHT22;6026;48.784;9.198;2022-08-25T04:17:27;19.10;99.90
11934;DHT22;6026;48.784;9.198;2022-08-25T04:19:52;19.10;99.90
11934;DHT22;6026;48.784;9.198;2022-08-25T04:22:18;19.10;99.90
11934;DHT22;6026;48.784;9.198;2022-08-25T04:24:44;19.10;99.90
11934;DHT22;6026;48.784;9.198;2022-08-25T04:27:09;19.10;99.90
11934;DHT22;6026;48.784;9.198;2022-08-25T04:29:35;19.10;99.90
11934;DHT22;6026;48.784;9.198;2022-08-25T04:32:00;19.10;99.90
11934;DHT22;6026;48.784;9.198;2022-08-25T04:34:27;19.00;99.90
11934;DHT22;6026;48.784;9.198;2022-08-25T04:36:53;19.00;99.90
11934;DHT22;6026;48.784;9.198;2022-08-25T04:39:19;19.00;99.90
11934;DHT22;6026;48.784;9.198;2022-08-25T04:41:46;19.00;99.90
11934;DHT22;6026;48.784;9.198;2022-08-25T04:44:11;19.00;99.90
11934;DHT22;6026;48.784;9.198;2022-08-25T04:46:37;19.00;99.90
11934;DHT22;6026;48.784;9.198;2022-08-25T04:49:04;19.00;99.90
11934;DHT22;6026;48.784;9.198;2022-08-25T04:51:36;19.00;99.90
11934;DHT22;6026;48.784;9.198;2022-08-25T04:54:04;18.90;99.90
11934;DHT22;6026;48.784;9.198;2022-08-25T04:56:31;18.90;99.90
11934;DHT22;6026;48.784;9.198;2022-08-25T04:59:02;18.90;99.90
11934;DHT22;6026;48.784;9.198;2022-08-25T05:01:35;18.90;99.90
11934;DHT22;6026;48.784;9.198;2022-08-25T05:04:04;18.90;99.90
11934;DHT22;6026;48.784;9.198;2022-08-25T05:06:31;18.90;99.90
11934;DHT22;6026;48.784;9.198;2022-08-25T05:08:57;18.90;99.90
11934;DHT22;6026;48.784;9.198;2022-08-25T05:11:24;18.90;99.90
11934;DHT22;6026;48.784;9.198;2022-08-25T05:13:53;18.90;99.90
11934;DHT22;6026;48.784;9.198;2022-08-25T05:16:20;18.90;99.90
11934;DHT22;6026;48.784;9.198;2022-08-25T05:18:46;18.90;99.90
11934;DHT22;6026;48.784;9.198;2022-08-25T05:21:14;19.00;99.90
11934;DHT22;6026;48.784;9.198;2022-08-25T05:23:41;19.00;99.90
11934;DHT22;6026;48.784;9.198;2022-08-25T05:26:15;19.00;99.90
11934;DHT22;6026;48.784;9.198;2022-08-25T05:28:41;19.10;99.90
11934;DHT22;6026;48.784;9.198;2022-08-25T05:31:10;19.10;99.90
11934;DHT22;6026;48.784;9.198;2022-08-25T05:33:37;19.00;99.90
11934;DHT22;6026;48.784;9.198;2022-08-25T05:36:04;19.10;99.90
11934;DHT22;6026;48.784;9.198;2022-08-25T05:38:29;19.10;99.90
11934;DHT22;6026;48.784;9.198;2022-08-25T05:41:05;19.20;99.90
11934;DHT22;6026;48.784;9.198;2022-08-25T05:43:31;19.20;99.90
11934;DHT22;6026;48.784;9.198;2022-08-25T05:45:58;19.30;99.90
11934;DHT22;6026;48.784;9.198;2022-08-25T05:48:24;19.40;99.90
11934;DHT22;6026;48.784;9.198;2022-08-25T05:50:56;19.50;99.90
11934;DHT22;6026;48.784;9.198;2022-08-25T05:53:22;19.60;99.90
11934;DHT22;6026;48.784;9.198;2022-08-25T05:55:50;19.80;99.90
11934;DHT22;6026;48.784;9.198;2022-08-25T05:58:28;20.00;99.90
11934;DHT22;6026;48.784;9.198;2022-08-25T06:00:55;20.20;99.90
11934;DHT22;6026;48.784;9.198;2022-08-25T06:03:21;20.40;99.90
11934;DHT22;6026;48.784;9.198;2022-08-25T06:05:46;20.50;99.90
11934;DHT22;6026;48.784;9.198;2022-08-25T06:08:13;20.70;99.90
11934;DHT22;6026;48.784;9.198;2022-08-25T06:10:38;20.70;99.90
11934;DHT22;6026;48.784;9.198;2022-08-25T06:13:04;20.80;99.90
11934;DHT22;6026;48.784;9.198;2022-08-25T06:15:30;20.80;99.90
11934;DHT22;6026;48.784;9.198;2022-08-25T06:17:56;21.00;99.90
11934;DHT22;6026;48.784;9.198;2022-08-25T06:20:25;21.10;99.90
11934;DHT22;6026;48.784;9.198;2022-08-25T06:22:52;21.20;99.90
11934;DHT22;6026;48.784;9.198;2022-08-25T06:25:20;21.40;99.90
11934;DHT22;6026;48.784;9.198;2022-08-25T06:27:46;21.60;99.90
11934;DHT22;6026;48.784;9.198;2022-08-25T06:30:14;21.80;99.90
11934;DHT22;6026;48.784;9.198;2022-08-25T06:32:42;21.90;99.90
11934;DHT22;6026;48.784;9.198;2022-08-25T06:35:15;22.10;99.90
11934;DHT22;6026;48.784;9.198;2022-08-25T06:37:41;22.20;99.90
11934;DHT22;6026;48.784;9.198;2022-08-25T06:40:08;22.40;99.90
11934;DHT22;6026;48.784;9.198;2022-08-25T06:42:35;22.60;99.90
11934;DHT22;6026;48.784;9.198;2022-08-25T06:45:01;22.80;99.90
11934;DHT22;6026;48.784;9.198;2022-08-25T06:47:26;23.00;99.90
11934;DHT22;6026;48.784;9.198;2022-08-25T06:49:52;23.20;99.90
11934;DHT22;6026;48.784;9.198;2022-08-25T06:52:18;23.40;99.90
11934;DHT22;6026;48.784;9.198;2022-08-25T06:54:43;23.60;99.90
11934;DHT22;6026;48.784;9.198;2022-08-25T06:57:09;23.80;99.90
11934;DHT22;6026;48.784;9.198;2022-08-25T06:59:35;24.00;99.90
11934;DHT22;6026;48.784;9.198;2022-08-25T07:02:03;24.10;99.90
11934;DHT22;6026;48.784;9.198;2022-08-25T07:04:29;24.10;99.90
11934;DHT22;6026;48.784;9.198;2022-08-25T07:06:55;24.10;99.90
11934;DHT22;6026;48.784;9.198;2022-08-25T07:09:20;24.10;99.90
11934;DHT22;6026;48.784;9.198;2022-08-25T07:11:46;24.00;99.90
11934;DHT22;6026;48.784;9.198;2022-08-25T07:14:15;24.10;99.90
11934;DHT22;6026;48.784;9.198;2022-08-25T07:16:42;24.10;99.90
11934;DHT22;6026;48.784;9.198;2022-08-25T07:19:08;24.20;99.90
11934;DHT22;6026;48.784;9.198;2022-08-25T07:21:36;24.20;99.90
11934;DHT22;6026;48.784;9.198;2022-08-25T07:24:07;24.20;99.90
11934;DHT22;6026;48.784;9.198;2022-08-25T07:26:34;24.30;99.90
11934;DHT22;6026;48.784;9.198;2022-08-25T07:29:01;24.30;99.90
11934;DHT22;6026;48.784;9.198;2022-08-25T07:31:26;24.40;99.90
11934;DHT22;6026;48.784;9.198;2022-08-25T07:33:52;24.50;99.90
11934;DHT22;6026;48.784;9.198;2022-08-25T07:36:36;24.60;99.90
11934;DHT22;6026;48.784;9.198;2022-08-25T07:39:02;24.60;99.90
11934;DHT22;6026;48.784;9.198;2022-08-25T07:41:40;24.80;99.90
11934;DHT22;6026;48.784;9.198;2022-08-25T07:44:09;24.90;99.90
11934;DHT22;6026;48.784;9.198;2022-08-25T07:46:35;25.10;99.90
11934;DHT22;6026;48.784;9.198;2022-08-25T07:49:00;25.20;99.90
11934;DHT22;6026;48.784;9.198;2022-08-25T07:51:26;25.40;99.90
11934;DHT22;6026;48.784;9.198;2022-08-25T07:53:52;25.30;99.90
11934;DHT22;6026;48.784;9.198;2022-08-25T07:56:18;25.50;99.90
11934;DHT22;6026;48.784;9.198;2022-08-25T07:58:44;25.70;99.90
11934;DHT22;6026;48.784;9.198;2022-08-25T08:01:20;25.80;99.90
11934;DHT22;6026;48.784;9.198;2022-08-25T08:03:46;26.00;99.90
11934;DHT22;6026;48.784;9.198;2022-08-25T08:06:13;26.20;99.90
11934;DHT22;6026;48.784;9.198;2022-08-25T08:08:41;26.50;99.90
11934;DHT22;6026;48.784;9.198;2022-08-25T08:11:24;26.50;99.90
11934;DHT22;6026;48.784;9.198;2022-08-25T08:13:55;26.60;99.90
11934;DHT22;6026;48.784;9.198;2022-08-25T08:16:23;26.70;99.90
11934;DHT22;6026;48.784;9.198;2022-08-25T08:18:50;27.00;99.90
11934;DHT22;6026;48.784;9.198;2022-08-25T08:21:19;27.20;99.90
11934;DHT22;6026;48.784;9.198;2022-08-25T08:23:47;27.30;99.90
11934;DHT22;6026;48.784;9.198;2022-08-25T08:26:13;27.50;99.90
11934;DHT22;6026;48.784;9.198;2022-08-25T08:28:39;27.50;99.90
11934;DHT22;6026;48.784;9.198;2022-08-25T08:31:05;27.80;99.90
11934;DHT22;6026;48.784;9.198;2022-08-25T08:33:33;27.30;99.90
11934;DHT22;6026;48.784;9.198;2022-08-25T08:36:09;27.70;99.90
11934;DHT22;6026;48.784;9.198;2022-08-25T08:38:36;27.90;99.90
11934;DHT22;6026;48.784;9.198;2022-08-25T08:44:57;28.20;99.90
11934;DHT22;6026;48.784;9.198;2022-08-25T08:55:57;28.40;99.90
11934;DHT22;6026;48.784;9.198;2022-08-25T09:00:54;28.90;99.90
11934;DHT22;6026;48.784;9.198;2022-08-25T09:03:46;29.10;99.90
11934;DHT22;6026;48.784;9.198;2022-08-25T09:06:19;29.40;99.90
11934;DHT22;6026;48.784;9.198;2022-08-25T09:08:46;29.30;99.90
11934;DHT22;6026;48.784;9.198;2022-08-25T09:17:01;29.30;99.90
11934;DHT22;6026;48.784;9.198;2022-08-25T09:22:01;29.70;99.90
11934;DHT22;6026;48.784;9.198;2022-08-25T09:30:11;29.20;99.90
11934;DHT22;6026;48.784;9.198;2022-08-25T09:32:44;29.80;99.90
11934;DHT22;6026;48.784;9.198;2022-08-25T09:35:18;29.70;99.90
11934;DHT22;6026;48.784;9.198;2022-08-25T09:38:02;29.80;99.90
11934;DHT22;6026;48.784;9.198;2022-08-25T09:40:30;29.80;99.90
11934;DHT22;6026;48.784;9.198;2022-08-25T09:42:58;29.80;99.90
11934;DHT22;6026;48.784;9.198;2022-08-25T09:45:40;30.20;99.90
11934;DHT22;6026;48.784;9.198;2022-08-25T09:48:20;30.30;99.90
11934;DHT22;6026;48.784;9.198;2022-08-25T09:50:47;30.50;99.90
11934;DHT22;6026;48.784;9.198;2022-08-25T09:53:15;30.80;99.90
11934;DHT22;6026;48.784;9.198;2022-08-25T09:55:42;31.10;99.90
11934;DHT22;6026;48.784;9.198;2022-08-25T09:58:21;31.20;99.90
11934;DHT22;6026;48.784;9.198;2022-08-25T10:04:01;31.10;99.90
11934;DHT22;6026;48.784;9.198;2022-08-25T10:06:41;31.50;99.90
11934;DHT22;6026;48.784;9.198;2022-08-25T10:09:12;31.80;99.90
11934;DHT22;6026;48.784;9.198;2022-08-25T10:11:46;32.10;99.90
11934;DHT22;6026;48.784;9.198;2022-08-25T10:16:50;31.80;99.90
11934;DHT22;6026;48.784;9.198;2022-08-25T10:22:07;32.00;99.90
11934;DHT22;6026;48.784;9.198;2022-08-25T10:24:34;32.00;99.90
11934;DHT22;6026;48.784;9.198;2022-08-25T10:30:06;32.00;99.90
11934;DHT22;6026;48.784;9.198;2022-08-25T10:35:22;32.30;99.90
11934;DHT22;6026;48.784;9.198;2022-08-25T10:40:43;32.40;99.90
11934;DHT22;6026;48.784;9.198;2022-08-25T10:43:27;32.60;99.90
11934;DHT22;6026;48.784;9.198;2022-08-25T10:52:36;32.70;99.90
11934;DHT22;6026;48.784;9.198;2022-08-25T10:55:21;33.10;99.90
11934;DHT22;6026;48.784;9.198;2022-08-25T11:01:24;33.60;99.90
11934;DHT22;6026;48.784;9.198;2022-08-25T11:04:31;33.40;99.90
11934;DHT22;6026;48.784;9.198;2022-08-25T11:09:48;33.60;99.90
11934;DHT22;6026;48.784;9.198;2022-08-25T11:12:42;33.80;99.90
11934;DHT22;6026;48.784;9.198;2022-08-25T11:15:19;34.20;99.90
11934;DHT22;6026;48.784;9.198;2022-08-25T11:17:52;34.10;99.40
11934;DHT22;6026;48.784;9.198;2022-08-25T11:20:23;34.30;98.90
11934;DHT22;6026;48.784;9.198;2022-08-25T11:23:16;34.50;98.60
11934;DHT22;6026;48.784;9.198;2022-08-25T11:25:49;34.70;98.30
11934;DHT22;6026;48.784;9.198;2022-08-25T11:28:48;34.60;98.00
11934;DHT22;6026;48.784;9.198;2022-08-25T11:31:17;34.50;97.40
11934;DHT22;6026;48.784;9.198;2022-08-25T11:33:44;34.50;97.30
11934;DHT22;6026;48.784;9.198;2022-08-25T11:36:33;34.60;97.40
11934;DHT22;6026;48.784;9.198;2022-08-25T11:39:13;34.40;97.40
11934;DHT22;6026;48.784;9.198;2022-08-25T11:44:50;33.80;98.10
11934;DHT22;6026;48.784;9.198;2022-08-25T11:50:35;33.40;97.60
11934;DHT22;6026;48.784;9.198;2022-08-25T12:00:56;33.80;97.10
11934;DHT22;6026;48.784;9.198;2022-08-25T12:11:48;33.00;96.60
11934;DHT22;6026;48.784;9.198;2022-08-25T12:27:28;33.30;96.60
11934;DHT22;6026;48.784;9.198;2022-08-25T12:35:32;33.50;95.80
11934;DHT22;6026;48.784;9.198;2022-08-25T12:43:25;33.20;95.60
11934;DHT22;6026;48.784;9.198;2022-08-25T12:48:54;33.30;96.00
11934;DHT22;6026;48.784;9.198;2022-08-25T12:51:22;33.20;96.10
11934;DHT22;6026;48.784;9.198;2022-08-25T12:56:50;33.50;94.60
11934;DHT22;6026;48.784;9.198;2022-08-25T12:59:21;33.40;94.00
11934;DHT22;6026;48.784;9.198;2022-08-25T13:04:40;32.90;95.40
11934;DHT22;6026;48.784;9.198;2022-08-25T13:07:19;33.00;95.70
11934;DHT22;6026;48.784;9.198;2022-08-25T13:12:54;33.90;94.90
11934;DHT22;6026;48.784;9.198;2022-08-25T13:20:42;34.10;95.20
11934;DHT22;6026;48.784;9.198;2022-08-25T13:23:08;34.30;94.70
11934;DHT22;6026;48.784;9.198;2022-08-25T13:25:38;34.50;94.50
11934;DHT22;6026;48.784;9.198;2022-08-25T13:28:28;33.40;95.00
11934;DHT22;6026;48.784;9.198;2022-08-25T13:31:00;33.60;94.90
11934;DHT22;6026;48.784;9.198;2022-08-25T13:33:26;33.50;95.00
11934;DHT22;6026;48.784;9.198;2022-08-25T13:35:55;33.30;95.50
11934;DHT22;6026;48.784;9.198;2022-08-25T13:38:41;33.50;94.80
11934;DHT22;6026;48.784;9.198;2022-08-25T13:41:09;33.90;94.20
11934;DHT22;6026;48.784;9.198;2022-08-25T13:43:36;33.50;93.50
11934;DHT22;6026;48.784;9.198;2022-08-25T13:46:03;33.20;93.70
11934;DHT22;6026;48.784;9.198;2022-08-25T13:48:36;33.40;93.40
11934;DHT22;6026;48.784;9.198;2022-08-25T13:51:24;32.90;94.20
11934;DHT22;6026;48.784;9.198;2022-08-25T13:54:03;33.00;94.50
11934;DHT22;6026;48.784;9.198;2022-08-25T13:56:34;33.30;94.30
11934;DHT22;6026;48.784;9.198;2022-08-25T13:59:03;33.70;93.00
11934;DHT22;6026;48.784;9.198;2022-08-25T14:01:43;33.90;93.20
11934;DHT22;6026;48.784;9.198;2022-08-25T14:07:23;34.90;92.90
11934;DHT22;6026;48.784;9.198;2022-08-25T14:09:54;34.60;92.90
11934;DHT22;6026;48.784;9.198;2022-08-25T14:17:29;34.00;93.50
11934;DHT22;6026;48.784;9.198;2022-08-25T14:19:56;33.30;93.40
11934;DHT22;6026;48.784;9.198;2022-08-25T14:22:22;32.90;94.10
11934;DHT22;6026;48.784;9.198;2022-08-25T14:24:47;32.50;94.60
11934;DHT22;6026;48.784;9.198;2022-08-25T14:27:13;31.80;95.30
11934;DHT22;6026;48.784;9.198;2022-08-25T14:29:38;31.60;95.70
11934;DHT22;6026;48.784;9.198;2022-08-25T14:32:04;31.40;96.10
11934;DHT22;6026;48.784;9.198;2022-08-25T14:34:33;31.50;96.10
11934;DHT22;6026;48.784;9.198;2022-08-25T14:37:02;31.40;96.50
11934;DHT22;6026;48.784;9.198;2022-08-25T14:39:30;31.70;96.50
11934;DHT22;6026;48.784;9.198;2022-08-25T14:41:56;31.60;96.40
11934;DHT22;6026;48.784;9.198;2022-08-25T14:44:22;31.60;96.10
11934;DHT22;6026;48.784;9.198;2022-08-25T14:46:57;32.00;95.80
11934;DHT22;6026;48.784;9.198;2022-08-25T14:49:25;32.30;95.80
11934;DHT22;6026;48.784;9.198;2022-08-25T14:51:55;32.40;95.30
11934;DHT22;6026;48.784;9.198;2022-08-25T14:54:25;32.40;95.20
11934;DHT22;6026;48.784;9.198;2022-08-25T14:56:51;32.60;94.60
11934;DHT22;6026;48.784;9.198;2022-08-25T14:59:16;33.10;94.70
11934;DHT22;6026;48.784;9.198;2022-08-25T15:01:43;33.10;94.60
11934;DHT22;6026;48.784;9.198;2022-08-25T15:04:14;33.20;94.90
11934;DHT22;6026;48.784;9.198;2022-08-25T15:06:41;33.30;93.80
11934;DHT22;6026;48.784;9.198;2022-08-25T15:09:09;33.30;93.80
11934;DHT22;6026;48.784;9.198;2022-08-25T15:11:42;33.10;94.20
11934;DHT22;6026;48.784;9.198;2022-08-25T15:14:09;32.80;93.80
11934;DHT22;6026;48.784;9.198;2022-08-25T15:16:38;32.60;94.90
11934;DHT22;6026;48.784;9.198;2022-08-25T15:19:06;32.60;95.20
11934;DHT22;6026;48.784;9.198;2022-08-25T15:21:34;32.50;95.40
11934;DHT22;6026;48.784;9.198;2022-08-25T15:24:00;32.00;95.80
11934;DHT22;6026;48.784;9.198;2022-08-25T15:26:25;32.00;96.00
11934;DHT22;6026;48.784;9.198;2022-08-25T15:28:51;31.70;96.00
11934;DHT22;6026;48.784;9.198;2022-08-25T15:31:19;31.70;96.60
11934;DHT22;6026;48.784;9.198;2022-08-25T15:33:45;31.60;96.50
11934;DHT22;6026;48.784;9.198;2022-08-25T15:36:13;31.90;96.50
11934;DHT22;6026;48.784;9.198;2022-08-25T15:38:41;31.90;96.00
11934;DHT22;6026;48.784;9.198;2022-08-25T15:41:08;31.80;95.70
11934;DHT22;6026;48.784;9.198;2022-08-25T15:43:35;31.70;95.50
11934;DHT22;6026;48.784;9.198;2022-08-25T15:46:00;31.70;95.70
11934;DHT22;6026;48.784;9.198;2022-08-25T15:48:27;31.70;95.90
11934;DHT22;6026;48.784;9.198;2022-08-25T15:50:54;31.60;96.10
11934;DHT22;6026;48.784;9.198;2022-08-25T15:53:21;31.10;96.50
11934;DHT22;6026;48.784;9.198;2022-08-25T15:55:48;30.80;96.80
11934;DHT22;6026;48.784;9.198;2022-08-25T15:58:15;31.00;96.60
11934;DHT22;6026;48.784;9.198;2022-08-25T16:00:42;31.10;96.80
11934;DHT22;6026;48.784;9.198;2022-08-25T16:03:08;30.80;96.50
11934;DHT22;6026;48.784;9.198;2022-08-25T16:05:38;31.00;96.70
11934;DHT22;6026;48.784;9.198;2022-08-25T16:08:05;30.90;96.60
11934;DHT22;6026;48.784;9.198;2022-08-25T16:10:35;31.00;96.40
11934;DHT22;6026;48.784;9.198;2022-08-25T16:13:02;31.20;96.60
11934;DHT22;6026;48.784;9.198;2022-08-25T16:15:28;31.00;96.60
11934;DHT22;6026;48.784;9.198;2022-08-25T16:17:54;30.90;96.60
11934;DHT22;6026;48.784;9.198;2022-08-25T16:20:20;30.90;96.70
11934;DHT22;6026;48.784;9.198;2022-08-25T16:22:47;30.80;96.70
11934;DHT22;6026;48.784;9.198;2022-08-25T16:25:13;30.80;96.70
11934;DHT22;6026;48.784;9.198;2022-08-25T16:27:39;30.50;97.20
11934;DHT22;6026;48.784;9.198;2022-08-25T16:30:09;30.60;97.40
11934;DHT22;6026;48.784;9.198;2022-08-25T16:32:35;30.50;97.50
11934;DHT22;6026;48.784;9.198;2022-08-25T16:35:01;30.50;97.50
11934;DHT22;6026;48.784;9.198;2022-08-25T16:37:27;30.40;97.60
11934;DHT22;6026;48.784;9.198;2022-08-25T16:39:53;30.20;97.40
11934;DHT22;6026;48.784;9.198;2022-08-25T16:42:19;30.10;97.60
11934;DHT22;6026;48.784;9.198;2022-08-25T16:44:45;30.10;97.90
11934;DHT22;6026;48.784;9.198;2022-08-25T16:47:11;29.90;98.10
11934;DHT22;6026;48.784;9.198;2022-08-25T16:49:39;29.80;98.40
11934;DHT22;6026;48.784;9.198;2022-08-25T16:52:05;29.90;98.70
11934;DHT22;6026;48.784;9.198;2022-08-25T16:54:51;29.80;98.70
11934;DHT22;6026;48.784;9.198;2022-08-25T16:57:35;29.70;98.80
11934;DHT22;6026;48.784;9.198;2022-08-25T17:00:00;29.60;98.80
11934;DHT22;6026;48.784;9.198;2022-08-25T17:02:26;29.60;98.80
11934;DHT22;6026;48.784;9.198;2022-08-25T17:04:51;29.50;98.80
11934;DHT22;6026;48.784;9.198;2022-08-25T17:07:17;29.50;98.80
11934;DHT22;6026;48.784;9.198;2022-08-25T17:09:43;29.30;99.00
11934;DHT22;6026;48.784;9.198;2022-08-25T17:12:08;29.30;99.10
11934;DHT22;6026;48.784;9.198;2022-08-25T17:14:35;29.20;99.30
11934;DHT22;6026;48.784;9.198;2022-08-25T17:17:01;29.20;99.50
11934;DHT22;6026;48.784;9.198;2022-08-25T17:19:27;29.30;99.50
11934;DHT22;6026;48.784;9.198;2022-08-25T17:21:53;29.20;99.60
11934;DHT22;6026;48.784;9.198;2022-08-25T17:24:30;29.10;99.70
11934;DHT22;6026;48.784;9.198;2022-08-25T17:26:56;29.10;99.80
11934;DHT22;6026;48.784;9.198;2022-08-25T17:29:21;29.00;99.90
11934;DHT22;6026;48.784;9.198;2022-08-25T17:31:47;28.90;99.80
11934;DHT22;6026;48.784;9.198;2022-08-25T17:34:14;28.90;99.80
11934;DHT22;6026;48.784;9.198;2022-08-25T17:36:40;28.90;99.90
11934;DHT22;6026;48.784;9.198;2022-08-25T17:39:08;28.90;99.90
11934;DHT22;6026;48.784;9.198;2022-08-25T17:41:35;28.90;99.90
11934;DHT22;6026;48.784;9.198;2022-08-25T17:44:01;28.90;99.90
11934;DHT22;6026;48.784;9.198;2022-08-25T17:46:27;28.80;99.90
11934;DHT22;6026;48.784;9.198;2022-08-25T17:48:53;28.80;99.90
11934;DHT22;6026;48.784;9.198;2022-08-25T17:51:19;28.70;99.90
11934;DHT22;6026;48.784;9.198;2022-08-25T17:53:46;28.70;99.90
11934;DHT22;6026;48.784;9.198;2022-08-25T17:56:15;28.70;99.90
11934;DHT22;6026;48.784;9.198;2022-08-25T17:58:41;28.60;99.90
11934;DHT22;6026;48.784;9.198;2022-08-25T18:01:17;28.70;99.90
11934;DHT22;6026;48.784;9.198;2022-08-25T18:03:43;28.50;99.90
11934;DHT22;6026;48.784;9.198;2022-08-25T18:06:12;28.60;99.90
11934;DHT22;6026;48.784;9.198;2022-08-25T18:08:38;28.60;99.90
11934;DHT22;6026;48.784;9.198;2022-08-25T18:11:04;28.60;99.90